FDX9 LFPG-EGSS
Flight info
| Callsign | FDX9 |
|---|---|
| Flight time | 0h 52m |
| Altitude | 24000 |
| Route | OPALE DCT KESAX DCT KUNAV Y8 BANVA |
| Aircraft | MD11/H-SDE1E2E3FGHIJ2J3J4J5M1RWXY/LB1D1 |
Departure
| Time | 2026-05-07 09:18 |
|---|---|
| Airport | Charles de Gaulle International Airport (LFPG) |
Arrival
| Time | 2026-05-07 10:10 |
|---|---|
| Airport | London Stansted Airport (EGSS) |
| Time | Latitude | Longitude | Altitude | Speed | Heading |
|---|---|---|---|---|---|
| 2026-05-07 07:58 | 48.99983 | 2.53701 | 362 ft | 0 kts | 355° |
| 2026-05-07 08:58 | 48.99967 | 2.53702 | 367 ft | 4 kts | 356° |
| 2026-05-07 08:59 | 48.99940 | 2.53705 | 367 ft | 4 kts | 355° |
| 2026-05-07 08:59 | 48.99913 | 2.53709 | 362 ft | 3 kts | 355° |
| 2026-05-07 08:59 | 48.99895 | 2.53712 | 364 ft | 4 kts | 316° |
| 2026-05-07 08:59 | 48.99889 | 2.53727 | 367 ft | 4 kts | 260° |
| 2026-05-07 09:00 | 48.99894 | 2.53767 | 362 ft | 4 kts | 261° |
| 2026-05-07 09:00 | 48.99896 | 2.53788 | 364 ft | 1 kts | 265° |
| 2026-05-07 09:00 | 48.99896 | 2.53790 | 362 ft | 0 kts | 265° |
| 2026-05-07 09:05 | 48.99895 | 2.53761 | 362 ft | 5 kts | 265° |
| 2026-05-07 09:06 | 48.99885 | 2.53693 | 369 ft | 5 kts | 241° |
| 2026-05-07 09:06 | 48.99862 | 2.53678 | 368 ft | 4 kts | 191° |
| 2026-05-07 09:06 | 48.99820 | 2.53683 | 364 ft | 6 kts | 170° |
| 2026-05-07 09:06 | 48.99809 | 2.53697 | 363 ft | 1 kts | 122° |
| 2026-05-07 09:07 | 48.99808 | 2.53722 | 363 ft | 5 kts | 97° |
| 2026-05-07 09:07 | 48.99808 | 2.53817 | 364 ft | 12 kts | 87° |
| 2026-05-07 09:07 | 48.99816 | 2.53972 | 365 ft | 17 kts | 85° |
| 2026-05-07 09:07 | 48.99827 | 2.54176 | 365 ft | 22 kts | 85° |
| 2026-05-07 09:08 | 48.99841 | 2.54428 | 363 ft | 26 kts | 85° |
| 2026-05-07 09:08 | 48.99857 | 2.54709 | 363 ft | 28 kts | 85° |
| 2026-05-07 09:08 | 48.99871 | 2.54965 | 367 ft | 20 kts | 86° |
| 2026-05-07 09:08 | 48.99881 | 2.55172 | 369 ft | 19 kts | 85° |
| 2026-05-07 09:09 | 48.99891 | 2.55365 | 362 ft | 17 kts | 85° |
| 2026-05-07 09:09 | 48.99910 | 2.55540 | 367 ft | 16 kts | 72° |
| 2026-05-07 09:09 | 48.99937 | 2.55686 | 366 ft | 12 kts | 99° |
| 2026-05-07 09:09 | 48.99916 | 2.55800 | 368 ft | 11 kts | 106° |
| 2026-05-07 09:10 | 48.99895 | 2.55923 | 362 ft | 14 kts | 101° |
| 2026-05-07 09:10 | 48.99893 | 2.56086 | 362 ft | 17 kts | 85° |
| 2026-05-07 09:10 | 48.99903 | 2.56284 | 368 ft | 20 kts | 85° |
| 2026-05-07 09:10 | 48.99915 | 2.56515 | 368 ft | 23 kts | 85° |
| 2026-05-07 09:11 | 48.99929 | 2.56777 | 368 ft | 26 kts | 85° |
| 2026-05-07 09:11 | 48.99945 | 2.57045 | 368 ft | 25 kts | 85° |
| 2026-05-07 09:11 | 48.99960 | 2.57299 | 368 ft | 23 kts | 84° |
| 2026-05-07 09:11 | 48.99973 | 2.57531 | 362 ft | 21 kts | 85° |
| 2026-05-07 09:12 | 48.99984 | 2.57746 | 367 ft | 20 kts | 85° |
| 2026-05-07 09:12 | 48.99994 | 2.57945 | 364 ft | 18 kts | 85° |
| 2026-05-07 09:12 | 49.00003 | 2.58127 | 365 ft | 17 kts | 86° |
| 2026-05-07 09:12 | 49.00012 | 2.58292 | 366 ft | 15 kts | 85° |
| 2026-05-07 09:13 | 49.00020 | 2.58445 | 365 ft | 14 kts | 85° |
| 2026-05-07 09:13 | 49.00027 | 2.58585 | 361 ft | 12 kts | 85° |
| 2026-05-07 09:13 | 49.00033 | 2.58710 | 362 ft | 11 kts | 85° |
| 2026-05-07 09:13 | 49.00039 | 2.58823 | 362 ft | 10 kts | 85° |
| 2026-05-07 09:14 | 49.00045 | 2.58928 | 362 ft | 10 kts | 85° |
| 2026-05-07 09:14 | 49.00050 | 2.59034 | 367 ft | 12 kts | 85° |
| 2026-05-07 09:14 | 49.00058 | 2.59177 | 364 ft | 15 kts | 85° |
| 2026-05-07 09:14 | 49.00067 | 2.59353 | 366 ft | 18 kts | 85° |
| 2026-05-07 09:15 | 49.00079 | 2.59562 | 361 ft | 21 kts | 85° |
| 2026-05-07 09:15 | 49.00091 | 2.59790 | 367 ft | 21 kts | 85° |
| 2026-05-07 09:15 | 49.00102 | 2.59999 | 367 ft | 16 kts | 85° |
| 2026-05-07 09:15 | 49.00111 | 2.60158 | 361 ft | 14 kts | 86° |
| 2026-05-07 09:16 | 49.00099 | 2.60202 | 368 ft | 3 kts | 142° |
| 2026-05-07 09:16 | 49.00066 | 2.60223 | 367 ft | 7 kts | 164° |
| 2026-05-07 09:16 | 49.00008 | 2.60235 | 367 ft | 9 kts | 175° |
| 2026-05-07 09:16 | 48.99936 | 2.60236 | 367 ft | 11 kts | 190° |
| 2026-05-07 09:17 | 48.99868 | 2.60171 | 367 ft | 13 kts | 231° |
| 2026-05-07 09:17 | 48.99829 | 2.60052 | 366 ft | 12 kts | 256° |
| 2026-05-07 09:17 | 48.99826 | 2.60021 | 365 ft | 1 kts | 262° |
| 2026-05-07 09:17 | 48.99818 | 2.59930 | 362 ft | 24 kts | 264° |
| 2026-05-07 09:18 | 48.99783 | 2.59256 | 358 ft | 104 kts | 265° |
| 2026-05-07 09:18 | 48.99705 | 2.57807 | 366 ft | 168 kts | 264° |
| 2026-05-07 09:18 | 48.99585 | 2.55912 | 825 ft | 185 kts | 266° |
| 2026-05-07 09:18 | 48.99454 | 2.53970 | 1817 ft | 181 kts | 265° |
| 2026-05-07 09:19 | 48.99349 | 2.52053 | 2711 ft | 187 kts | 266° |
| 2026-05-07 09:19 | 48.99243 | 2.50020 | 3453 ft | 196 kts | 266° |
| 2026-05-07 09:19 | 48.99130 | 2.47948 | 4274 ft | 204 kts | 266° |
| 2026-05-07 09:19 | 48.99012 | 2.45680 | 4734 ft | 231 kts | 265° |
| 2026-05-07 09:20 | 48.98866 | 2.43047 | 5019 ft | 262 kts | 266° |
| 2026-05-07 09:20 | 48.98723 | 2.40273 | 6039 ft | 267 kts | 265° |
| 2026-05-07 09:20 | 48.98575 | 2.37433 | 7074 ft | 271 kts | 265° |
| 2026-05-07 09:20 | 48.98424 | 2.34578 | 8013 ft | 274 kts | 265° |
| 2026-05-07 09:21 | 48.98268 | 2.31687 | 8948 ft | 277 kts | 264° |
| 2026-05-07 09:21 | 48.98136 | 2.28752 | 9857 ft | 281 kts | 268° |
| 2026-05-07 09:21 | 48.98263 | 2.25704 | 10343 ft | 301 kts | 280° |
| 2026-05-07 09:21 | 48.98968 | 2.22588 | 10480 ft | 329 kts | 298° |
| 2026-05-07 09:22 | 49.00403 | 2.19766 | 10620 ft | 353 kts | 317° |
| 2026-05-07 09:22 | 49.02518 | 2.17831 | 11243 ft | 359 kts | 339° |
| 2026-05-07 09:22 | 49.04964 | 2.16929 | 11913 ft | 364 kts | 350° |
| 2026-05-07 09:22 | 49.07459 | 2.16423 | 12604 ft | 367 kts | 352° |
| 2026-05-07 09:23 | 49.10009 | 2.15909 | 13315 ft | 370 kts | 351° |
| 2026-05-07 09:23 | 49.12568 | 2.15288 | 13989 ft | 374 kts | 349° |
| 2026-05-07 09:23 | 49.15139 | 2.14561 | 14600 ft | 377 kts | 347° |
| 2026-05-07 09:23 | 49.17728 | 2.13753 | 15207 ft | 380 kts | 347° |
| 2026-05-07 09:24 | 49.20329 | 2.12895 | 15835 ft | 384 kts | 346° |
| 2026-05-07 09:24 | 49.22950 | 2.12004 | 16474 ft | 387 kts | 346° |
| 2026-05-07 09:24 | 49.25596 | 2.11092 | 17088 ft | 390 kts | 346° |
| 2026-05-07 09:24 | 49.28257 | 2.10168 | 17698 ft | 395 kts | 346° |
| 2026-05-07 09:25 | 49.30950 | 2.09230 | 18138 ft | 398 kts | 346° |
| 2026-05-07 09:25 | 49.33629 | 2.08296 | 18701 ft | 401 kts | 346° |
| 2026-05-07 09:25 | 49.36356 | 2.07344 | 19229 ft | 404 kts | 346° |
| 2026-05-07 09:25 | 49.39103 | 2.06385 | 19744 ft | 406 kts | 346° |
| 2026-05-07 09:26 | 49.41873 | 2.05417 | 20251 ft | 409 kts | 346° |
| 2026-05-07 09:26 | 49.44666 | 2.04439 | 20764 ft | 412 kts | 346° |
| 2026-05-07 09:26 | 49.47483 | 2.03452 | 21277 ft | 415 kts | 346° |
| 2026-05-07 09:26 | 49.50275 | 2.02473 | 21797 ft | 417 kts | 346° |
| 2026-05-07 09:27 | 49.53113 | 2.01476 | 22314 ft | 420 kts | 346° |
| 2026-05-07 09:27 | 49.55977 | 2.00469 | 22801 ft | 424 kts | 346° |
| 2026-05-07 09:27 | 49.61767 | 1.98430 | 23631 ft | 428 kts | 346° |
| 2026-05-07 09:28 | 49.64666 | 1.97407 | 23947 ft | 431 kts | 346° |
| 2026-05-07 09:28 | 49.67603 | 1.96370 | 24037 ft | 428 kts | 346° |
| 2026-05-07 09:28 | 49.70443 | 1.95368 | 24062 ft | 412 kts | 346° |
| 2026-05-07 09:28 | 49.73237 | 1.94379 | 24072 ft | 411 kts | 346° |
| 2026-05-07 09:29 | 49.76026 | 1.93390 | 24065 ft | 411 kts | 346° |
| 2026-05-07 09:29 | 49.78776 | 1.92413 | 24062 ft | 411 kts | 346° |
| 2026-05-07 09:29 | 49.81560 | 1.91420 | 24068 ft | 411 kts | 346° |
| 2026-05-07 09:29 | 49.84350 | 1.90419 | 24067 ft | 411 kts | 346° |
| 2026-05-07 09:30 | 49.87137 | 1.89419 | 24061 ft | 410 kts | 345° |
| 2026-05-07 09:30 | 49.89863 | 1.88158 | 24064 ft | 409 kts | 335° |
| 2026-05-07 09:30 | 49.92339 | 1.85999 | 24065 ft | 407 kts | 324° |
| 2026-05-07 09:30 | 49.94602 | 1.83352 | 24068 ft | 407 kts | 320° |
| 2026-05-07 09:31 | 49.96754 | 1.80586 | 24061 ft | 407 kts | 319° |
| 2026-05-07 09:31 | 49.98923 | 1.77753 | 24061 ft | 406 kts | 319° |
| 2026-05-07 09:31 | 50.01102 | 1.74938 | 24063 ft | 406 kts | 319° |
| 2026-05-07 09:31 | 50.03294 | 1.72148 | 24073 ft | 407 kts | 320° |
| 2026-05-07 09:32 | 50.05494 | 1.69381 | 24062 ft | 407 kts | 320° |
| 2026-05-07 09:32 | 50.07674 | 1.66578 | 24062 ft | 406 kts | 318° |
| 2026-05-07 09:32 | 50.09823 | 1.63705 | 24073 ft | 406 kts | 317° |
| 2026-05-07 09:32 | 50.11932 | 1.60836 | 24072 ft | 406 kts | 317° |
| 2026-05-07 09:33 | 50.14058 | 1.57929 | 24067 ft | 406 kts | 317° |
| 2026-05-07 09:33 | 50.16189 | 1.55014 | 24067 ft | 406 kts | 317° |
| 2026-05-07 09:33 | 50.18314 | 1.52109 | 24067 ft | 406 kts | 317° |
| 2026-05-07 09:33 | 50.20445 | 1.49197 | 24072 ft | 406 kts | 317° |
| 2026-05-07 09:34 | 50.22551 | 1.46318 | 24076 ft | 406 kts | 317° |
| 2026-05-07 09:34 | 50.24681 | 1.43403 | 24076 ft | 406 kts | 317° |
| 2026-05-07 09:34 | 50.26820 | 1.40474 | 24075 ft | 406 kts | 317° |
| 2026-05-07 09:34 | 50.28944 | 1.37564 | 24075 ft | 406 kts | 317° |
| 2026-05-07 09:35 | 50.31047 | 1.34677 | 24075 ft | 407 kts | 317° |
| 2026-05-07 09:35 | 50.33163 | 1.31769 | 24074 ft | 407 kts | 317° |
| 2026-05-07 09:35 | 50.35293 | 1.28838 | 24077 ft | 407 kts | 317° |
| 2026-05-07 09:35 | 50.36728 | 1.26863 | 24077 ft | 406 kts | 317° |
| 2026-05-07 09:36 | 50.38848 | 1.23940 | 24079 ft | 406 kts | 317° |
| 2026-05-07 09:36 | 50.40947 | 1.21042 | 24079 ft | 406 kts | 317° |
| 2026-05-07 09:36 | 50.43096 | 1.18071 | 24083 ft | 406 kts | 317° |
| 2026-05-07 09:36 | 50.45187 | 1.15177 | 24079 ft | 406 kts | 317° |
| 2026-05-07 09:37 | 50.47315 | 1.12229 | 24080 ft | 406 kts | 317° |
| 2026-05-07 09:37 | 50.49376 | 1.09214 | 24081 ft | 405 kts | 312° |
| 2026-05-07 09:37 | 50.51094 | 1.05728 | 24080 ft | 403 kts | 298° |
| 2026-05-07 09:37 | 50.52157 | 1.01677 | 24083 ft | 401 kts | 284° |
| 2026-05-07 09:38 | 50.52708 | 0.97383 | 24082 ft | 401 kts | 278° |
| 2026-05-07 09:38 | 50.53069 | 0.93027 | 24081 ft | 402 kts | 276° |
| 2026-05-07 09:38 | 50.53391 | 0.88667 | 24087 ft | 401 kts | 276° |
| 2026-05-07 09:38 | 50.53730 | 0.84310 | 24087 ft | 401 kts | 277° |
| 2026-05-07 09:39 | 50.54153 | 0.80031 | 24083 ft | 401 kts | 282° |
| 2026-05-07 09:39 | 50.55038 | 0.75868 | 24085 ft | 402 kts | 296° |
| 2026-05-07 09:39 | 50.56606 | 0.72236 | 24086 ft | 403 kts | 311° |
| 2026-05-07 09:39 | 50.58636 | 0.69164 | 24088 ft | 405 kts | 318° |
| 2026-05-07 09:40 | 50.60816 | 0.66350 | 24084 ft | 406 kts | 320° |
| 2026-05-07 09:40 | 50.63040 | 0.63577 | 24083 ft | 406 kts | 320° |
| 2026-05-07 09:40 | 50.65244 | 0.60796 | 24088 ft | 406 kts | 320° |
| 2026-05-07 09:40 | 50.67436 | 0.57966 | 24085 ft | 406 kts | 319° |
| 2026-05-07 09:41 | 50.69607 | 0.55112 | 24081 ft | 406 kts | 319° |
| 2026-05-07 09:41 | 50.71777 | 0.52222 | 24082 ft | 406 kts | 319° |
| 2026-05-07 09:41 | 50.73901 | 0.49371 | 24083 ft | 406 kts | 318° |
| 2026-05-07 09:41 | 50.76051 | 0.46473 | 24086 ft | 406 kts | 318° |
| 2026-05-07 09:42 | 50.78202 | 0.43567 | 24084 ft | 407 kts | 318° |
| 2026-05-07 09:42 | 50.80351 | 0.40651 | 24080 ft | 407 kts | 318° |
| 2026-05-07 09:42 | 50.82507 | 0.37719 | 24081 ft | 410 kts | 318° |
| 2026-05-07 09:42 | 50.84712 | 0.34718 | 23812 ft | 424 kts | 318° |
| 2026-05-07 09:43 | 50.86956 | 0.31665 | 23230 ft | 427 kts | 318° |
| 2026-05-07 09:43 | 50.89219 | 0.28586 | 22513 ft | 429 kts | 318° |
| 2026-05-07 09:43 | 50.91495 | 0.25488 | 21856 ft | 431 kts | 318° |
| 2026-05-07 09:43 | 50.93775 | 0.22381 | 21280 ft | 432 kts | 318° |
| 2026-05-07 09:44 | 50.96033 | 0.19300 | 20888 ft | 434 kts | 318° |
| 2026-05-07 09:44 | 50.98330 | 0.16162 | 20490 ft | 435 kts | 318° |
| 2026-05-07 09:44 | 51.00654 | 0.13047 | 20143 ft | 436 kts | 320° |
| 2026-05-07 09:44 | 51.03069 | 0.10133 | 20049 ft | 436 kts | 323° |
| 2026-05-07 09:45 | 51.05537 | 0.07342 | 20000 ft | 436 kts | 324° |
| 2026-05-07 09:45 | 51.08029 | 0.04596 | 20004 ft | 436 kts | 324° |
| 2026-05-07 09:45 | 51.10499 | 0.01888 | 20007 ft | 436 kts | 324° |
| 2026-05-07 09:45 | 51.12994 | -0.00857 | 20078 ft | 436 kts | 324° |
| 2026-05-07 09:46 | 51.15489 | -0.03617 | 20073 ft | 437 kts | 324° |
| 2026-05-07 09:46 | 51.17980 | -0.06385 | 20075 ft | 437 kts | 324° |
| 2026-05-07 09:46 | 51.20468 | -0.09160 | 20074 ft | 437 kts | 324° |
| 2026-05-07 09:46 | 51.22966 | -0.11953 | 20077 ft | 437 kts | 324° |
| 2026-05-07 09:47 | 51.25455 | -0.14741 | 19860 ft | 437 kts | 324° |
| 2026-05-07 09:47 | 51.27940 | -0.17529 | 19593 ft | 435 kts | 324° |
| 2026-05-07 09:47 | 51.30390 | -0.20281 | 19332 ft | 434 kts | 324° |
| 2026-05-07 09:47 | 51.32853 | -0.23051 | 19049 ft | 432 kts | 324° |
| 2026-05-07 09:48 | 51.35324 | -0.25833 | 18784 ft | 431 kts | 324° |
| 2026-05-07 09:48 | 51.37772 | -0.28573 | 18524 ft | 429 kts | 325° |
| 2026-05-07 09:48 | 51.40350 | -0.30967 | 18253 ft | 425 kts | 334° |
| 2026-05-07 09:48 | 51.43095 | -0.32363 | 17940 ft | 405 kts | 350° |
| 2026-05-07 09:49 | 51.45839 | -0.32509 | 17646 ft | 387 kts | 6° |
| 2026-05-07 09:49 | 51.48399 | -0.31532 | 17345 ft | 372 kts | 20° |
| 2026-05-07 09:49 | 51.50730 | -0.29904 | 17033 ft | 358 kts | 26° |
| 2026-05-07 09:49 | 51.52885 | -0.28149 | 16750 ft | 345 kts | 27° |
| 2026-05-07 09:50 | 51.54988 | -0.26400 | 16462 ft | 334 kts | 27° |
| 2026-05-07 09:50 | 51.57009 | -0.24746 | 16202 ft | 324 kts | 26° |
| 2026-05-07 09:50 | 51.59025 | -0.23129 | 16104 ft | 322 kts | 26° |
| 2026-05-07 09:50 | 51.61033 | -0.21543 | 16068 ft | 321 kts | 25° |
| 2026-05-07 09:51 | 51.63040 | -0.19973 | 16069 ft | 321 kts | 25° |
| 2026-05-07 09:51 | 51.65063 | -0.18399 | 16084 ft | 321 kts | 25° |
| 2026-05-07 09:51 | 51.67077 | -0.16837 | 16068 ft | 321 kts | 25° |
| 2026-05-07 09:51 | 51.69097 | -0.15272 | 16068 ft | 322 kts | 25° |
| 2026-05-07 09:52 | 51.71089 | -0.13730 | 16068 ft | 321 kts | 25° |
| 2026-05-07 09:52 | 51.73111 | -0.12163 | 15990 ft | 323 kts | 25° |
| 2026-05-07 09:52 | 51.75141 | -0.10624 | 15711 ft | 320 kts | 24° |
| 2026-05-07 09:52 | 51.77165 | -0.09168 | 15420 ft | 315 kts | 23° |
| 2026-05-07 09:53 | 51.79129 | -0.07783 | 15141 ft | 305 kts | 23° |
| 2026-05-07 09:53 | 51.81016 | -0.06459 | 14870 ft | 286 kts | 23° |
| 2026-05-07 09:53 | 51.82789 | -0.05214 | 14601 ft | 278 kts | 23° |
| 2026-05-07 09:53 | 51.84568 | -0.03966 | 14334 ft | 280 kts | 23° |
| 2026-05-07 09:54 | 51.86349 | -0.02714 | 14065 ft | 276 kts | 23° |
| 2026-05-07 09:54 | 51.88100 | -0.01483 | 13793 ft | 274 kts | 23° |
| 2026-05-07 09:54 | 51.89843 | -0.00256 | 13483 ft | 272 kts | 23° |
| 2026-05-07 09:54 | 51.91575 | 0.00965 | 13214 ft | 269 kts | 23° |
| 2026-05-07 09:55 | 51.93280 | 0.02167 | 12925 ft | 267 kts | 23° |
| 2026-05-07 09:55 | 51.94988 | 0.03373 | 12633 ft | 266 kts | 23° |
| 2026-05-07 09:55 | 51.96682 | 0.04570 | 12330 ft | 265 kts | 23° |
| 2026-05-07 09:55 | 51.98372 | 0.05743 | 12043 ft | 263 kts | 22° |
| 2026-05-07 09:56 | 52.00036 | 0.06959 | 11775 ft | 262 kts | 28° |
| 2026-05-07 09:56 | 52.01623 | 0.08427 | 11493 ft | 261 kts | 30° |
| 2026-05-07 09:56 | 52.03179 | 0.09940 | 11213 ft | 260 kts | 31° |
| 2026-05-07 09:56 | 52.04725 | 0.11448 | 10943 ft | 259 kts | 31° |
| 2026-05-07 09:57 | 52.06268 | 0.12954 | 10673 ft | 257 kts | 31° |
| 2026-05-07 09:57 | 52.07802 | 0.14451 | 10414 ft | 256 kts | 31° |
| 2026-05-07 09:57 | 52.09307 | 0.15918 | 10139 ft | 255 kts | 31° |
| 2026-05-07 09:58 | 52.12175 | 0.18724 | 9586 ft | 252 kts | 36° |
| 2026-05-07 09:58 | 52.13344 | 0.20813 | 9292 ft | 250 kts | 64° |
| 2026-05-07 09:58 | 52.13735 | 0.23517 | 8991 ft | 246 kts | 94° |
| 2026-05-07 09:58 | 52.13255 | 0.26132 | 8701 ft | 242 kts | 124° |
| 2026-05-07 09:59 | 52.12071 | 0.28002 | 8445 ft | 239 kts | 147° |
| 2026-05-07 09:59 | 52.10661 | 0.29378 | 8183 ft | 235 kts | 150° |
| 2026-05-07 09:59 | 52.09194 | 0.30381 | 7866 ft | 227 kts | 172° |
| 2026-05-07 09:59 | 52.07657 | 0.30088 | 7583 ft | 224 kts | 202° |
| 2026-05-07 10:00 | 52.06292 | 0.28860 | 7321 ft | 225 kts | 210° |
| 2026-05-07 10:00 | 52.04977 | 0.27500 | 7087 ft | 218 kts | 211° |
| 2026-05-07 10:00 | 52.03768 | 0.26236 | 6999 ft | 202 kts | 211° |
| 2026-05-07 10:00 | 52.02595 | 0.25003 | 6995 ft | 199 kts | 211° |
| 2026-05-07 10:01 | 52.01425 | 0.23776 | 6777 ft | 199 kts | 211° |
| 2026-05-07 10:01 | 52.00287 | 0.22574 | 6527 ft | 196 kts | 211° |
| 2026-05-07 10:01 | 51.99149 | 0.21366 | 6266 ft | 195 kts | 211° |
| 2026-05-07 10:01 | 51.98017 | 0.20162 | 6049 ft | 193 kts | 211° |
| 2026-05-07 10:02 | 51.96893 | 0.18969 | 6010 ft | 194 kts | 211° |
| 2026-05-07 10:02 | 51.95757 | 0.17768 | 6002 ft | 194 kts | 211° |
| 2026-05-07 10:02 | 51.94623 | 0.16573 | 6004 ft | 194 kts | 211° |
| 2026-05-07 10:02 | 51.93531 | 0.15262 | 5994 ft | 194 kts | 219° |
| 2026-05-07 10:03 | 51.92563 | 0.13792 | 6119 ft | 194 kts | 221° |
| 2026-05-07 10:03 | 51.91583 | 0.12276 | 6378 ft | 196 kts | 220° |
| 2026-05-07 10:03 | 51.90591 | 0.10743 | 6602 ft | 198 kts | 221° |
| 2026-05-07 10:03 | 51.89574 | 0.09174 | 6212 ft | 202 kts | 221° |
| 2026-05-07 10:04 | 51.88559 | 0.07613 | 5766 ft | 200 kts | 221° |
| 2026-05-07 10:04 | 51.87562 | 0.06088 | 5327 ft | 199 kts | 221° |
| 2026-05-07 10:04 | 51.86556 | 0.04555 | 4878 ft | 198 kts | 220° |
| 2026-05-07 10:04 | 51.85547 | 0.03021 | 4432 ft | 200 kts | 221° |
| 2026-05-07 10:05 | 51.84531 | 0.01489 | 3992 ft | 200 kts | 221° |
| 2026-05-07 10:05 | 51.83524 | -0.00029 | 3609 ft | 197 kts | 221° |
| 2026-05-07 10:05 | 51.82493 | -0.01422 | 3299 ft | 191 kts | 206° |
| 2026-05-07 10:05 | 51.81230 | -0.01779 | 3018 ft | 184 kts | 168° |
| 2026-05-07 10:06 | 51.80130 | -0.00781 | 2771 ft | 185 kts | 134° |
| 2026-05-07 10:06 | 51.79290 | 0.00830 | 2563 ft | 188 kts | 130° |
| 2026-05-07 10:06 | 51.78459 | 0.02464 | 2302 ft | 189 kts | 130° |
| 2026-05-07 10:06 | 51.77860 | 0.04325 | 2034 ft | 189 kts | 100° |
| 2026-05-07 10:07 | 51.78001 | 0.06309 | 1995 ft | 172 kts | 75° |
| 2026-05-07 10:07 | 51.78406 | 0.08124 | 1973 ft | 173 kts | 59° |
| 2026-05-07 10:07 | 51.79229 | 0.09538 | 2027 ft | 175 kts | 46° |
| 2026-05-07 10:07 | 51.80108 | 0.10899 | 2006 ft | 175 kts | 46° |
| 2026-05-07 10:08 | 51.80998 | 0.12241 | 2005 ft | 174 kts | 44° |
| 2026-05-07 10:08 | 51.81888 | 0.13568 | 2000 ft | 174 kts | 45° |
| 2026-05-07 10:08 | 51.82773 | 0.14895 | 1765 ft | 173 kts | 44° |
| 2026-05-07 10:08 | 51.83657 | 0.16218 | 1506 ft | 173 kts | 45° |
| 2026-05-07 10:09 | 51.84538 | 0.17538 | 1246 ft | 169 kts | 44° |
| 2026-05-07 10:09 | 51.85372 | 0.18791 | 980 ft | 162 kts | 46° |
| 2026-05-07 10:09 | 51.86192 | 0.20020 | 799 ft | 161 kts | 45° |
| 2026-05-07 10:09 | 51.87008 | 0.21236 | 570 ft | 159 kts | 45° |
| 2026-05-07 10:10 | 51.87813 | 0.22447 | 369 ft | 158 kts | 44° |
| 2026-05-07 10:10 | 51.88542 | 0.23543 | 359 ft | 129 kts | 43° |
| 2026-05-07 10:10 | 51.89122 | 0.24410 | 364 ft | 85 kts | 43° |
| 2026-05-07 10:10 | 51.89401 | 0.24830 | 365 ft | 31 kts | 43° |
| 2026-05-07 10:11 | 51.89481 | 0.24985 | 367 ft | 14 kts | 66° |
| 2026-05-07 10:11 | 51.89492 | 0.25097 | 366 ft | 8 kts | 86° |
| 2026-05-07 10:11 | 51.89490 | 0.25177 | 370 ft | 7 kts | 100° |
| 2026-05-07 10:11 | 51.89476 | 0.25232 | 369 ft | 2 kts | 123° |
| 2026-05-07 10:12 | 51.89463 | 0.25261 | 367 ft | 2 kts | 129° |
| 2026-05-07 10:12 | 51.89434 | 0.25317 | 364 ft | 10 kts | 134° |
| 2026-05-07 10:12 | 51.89396 | 0.25344 | 366 ft | 3 kts | 186° |
| 2026-05-07 10:12 | 51.89361 | 0.25315 | 367 ft | 8 kts | 215° |
| 2026-05-07 10:13 | 51.89316 | 0.25255 | 368 ft | 8 kts | 219° |
| 2026-05-07 10:13 | 51.89274 | 0.25200 | 367 ft | 7 kts | 215° |
| 2026-05-07 10:13 | 51.89230 | 0.25205 | 364 ft | 8 kts | 153° |
| 2026-05-07 10:13 | 51.89180 | 0.25244 | 366 ft | 7 kts | 174° |
| 2026-05-07 10:14 | 51.89140 | 0.25216 | 367 ft | 6 kts | 216° |
| 2026-05-07 10:14 | 51.89107 | 0.25172 | 364 ft | 6 kts | 220° |
| 2026-05-07 10:14 | 51.89076 | 0.25128 | 364 ft | 6 kts | 220° |
| 2026-05-07 10:14 | 51.89038 | 0.25071 | 367 ft | 10 kts | 224° |
| 2026-05-07 10:15 | 51.88980 | 0.24980 | 367 ft | 12 kts | 224° |
| 2026-05-07 10:15 | 51.88916 | 0.24884 | 368 ft | 13 kts | 222° |
| 2026-05-07 10:15 | 51.88849 | 0.24787 | 365 ft | 13 kts | 222° |
| 2026-05-07 10:15 | 51.88778 | 0.24684 | 364 ft | 14 kts | 223° |
| 2026-05-07 10:16 | 51.88699 | 0.24563 | 364 ft | 17 kts | 223° |
| 2026-05-07 10:16 | 51.88626 | 0.24452 | 361 ft | 12 kts | 223° |
| 2026-05-07 10:16 | 51.88572 | 0.24380 | 359 ft | 8 kts | 210° |
| 2026-05-07 10:16 | 51.88535 | 0.24390 | 359 ft | 4 kts | 149° |
| 2026-05-07 10:17 | 51.88517 | 0.24413 | 363 ft | 3 kts | 140° |
| 2026-05-07 10:17 | 51.88498 | 0.24436 | 362 ft | 2 kts | 156° |
| 2026-05-07 10:17 | 51.88485 | 0.24432 | 360 ft | 2 kts | 194° |
| 2026-05-07 10:17 | 51.88463 | 0.24409 | 363 ft | 4 kts | 217° |
| 2026-05-07 10:18 | 51.88446 | 0.24387 | 363 ft | 3 kts | 220° |
| 2026-05-07 10:18 | 51.88435 | 0.24370 | 362 ft | 2 kts | 221° |
| 2026-05-07 10:18 | 51.88427 | 0.24359 | 362 ft | 1 kts | 222° |
| 2026-05-07 10:18 | 51.88425 | 0.24356 | 362 ft | 0 kts | 222° |